Time;durP1;ratioP1;P1;durP2;ratioP2;P2;SDS_P1;SDS_P2;PMS_P1;PMS_P2;Temp;Humidity;BMP_temperature;BMP_pressure;BME280_temperature;BME280_humidity;BME280_pressure;Samples;Min_cycle;Max_cycle;Signal;HPM_P1;HPM_P2
2022/06/07 00:01:06;;;;;;;17.23;8.10;;;11.40;99.90;;;;;;5086881;28;20075;-77
2022/06/07 00:03:32;;;;;;;26.15;8.73;;;11.40;99.90;;;;;;5085052;28;20041;-77
2022/06/07 00:05:58;;;;;;;19.70;8.45;;;11.40;99.90;;;;;;5083684;28;20037;-77
2022/06/07 00:08:24;;;;;;;22.77;9.85;;;11.40;99.90;;;;;;5098463;28;20508;-77
2022/06/07 00:10:50;;;;;;;19.33;8.98;;;11.40;99.90;;;;;;5102663;28;20063;-77
2022/06/07 00:13:17;;;;;;;19.85;8.45;;;11.50;99.90;;;;;;5087788;28;20040;-77
2022/06/07 00:15:43;;;;;;;20.55;9.25;;;11.50;99.90;;;;;;5084384;28;20463;-78
2022/06/07 00:18:10;;;;;;;14.48;7.63;;;11.40;99.90;;;;;;5084494;28;20037;-77
2022/06/07 00:20:38;;;;;;;17.77;8.05;;;11.50;99.90;;;;;;5084004;28;20056;-77
2022/06/07 00:23:08;;;;;;;15.55;7.60;;;11.50;99.90;;;;;;5099615;28;20389;-78
2022/06/07 00:25:34;;;;;;;14.05;8.88;;;11.50;99.90;;;;;;5104183;28;20043;-77
2022/06/07 00:27:59;;;;;;;20.23;8.35;;;11.50;99.90;;;;;;5104402;28;20130;-78
2022/06/07 00:30:26;;;;;;;15.65;8.02;;;11.60;99.90;;;;;;5105426;28;20051;-78
2022/06/07 00:32:52;;;;;;;18.67;9.02;;;11.60;99.90;;;;;;5093229;28;20040;-78
2022/06/07 00:35:17;;;;;;;15.07;9.43;;;11.50;99.90;;;;;;5084476;28;20090;-78
2022/06/07 00:37:43;;;;;;;17.45;9.23;;;11.50;99.90;;;;;;5092677;28;20058;-77
2022/06/07 00:40:09;;;;;;;19.33;8.60;;;11.60;99.90;;;;;;5104899;28;20036;-77
2022/06/07 00:42:35;;;;;;;19.48;8.55;;;11.60;99.90;;;;;;5105359;28;20040;-78
2022/06/07 00:45:01;;;;;;;17.77;8.80;;;11.50;99.90;;;;;;5096785;28;20051;-78
2022/06/07 00:47:29;;;;;;;19.67;10.10;;;11.60;99.90;;;;;;5084891;28;20033;-78
2022/06/07 00:50:06;;;;;;;20.90;9.00;;;11.60;99.90;;;;;;5084932;28;20041;-78
2022/06/07 00:52:34;;;;;;;19.00;9.43;;;11.60;99.90;;;;;;5085067;28;20080;-78
2022/06/07 00:55:01;;;;;;;17.13;8.68;;;11.60;99.90;;;;;;5086024;28;20056;-78
2022/06/07 00:57:27;;;;;;;20.00;9.90;;;11.60;99.90;;;;;;5090563;28;20040;-78
2022/06/07 00:59:53;;;;;;;17.70;9.65;;;11.60;99.90;;;;;;5106067;28;20052;-78
2022/06/07 01:02:20;;;;;;;21.00;10.68;;;11.70;99.90;;;;;;5105652;28;20076;-78
2022/06/07 01:04:45;;;;;;;18.42;10.35;;;11.60;99.90;;;;;;5104830;28;20086;-78
2022/06/07 01:12:39;;;;;;;21.60;12.05;;;11.80;99.90;;;;;;5095917;28;20102;-78
2022/06/07 01:15:06;;;;;;;22.10;12.60;;;12.50;99.90;;;;;;5085574;28;20104;-78
2022/06/07 01:17:32;;;;;;;24.00;12.02;;;11.70;99.90;;;;;;5092715;28;20036;-78
2022/06/07 01:19:57;;;;;;;19.63;12.60;;;11.80;99.90;;;;;;5104605;28;20036;-78
2022/06/07 01:22:23;;;;;;;21.40;12.00;;;11.80;99.90;;;;;;5104186;28;20047;-78
2022/06/07 01:24:49;;;;;;;21.55;12.43;;;11.80;99.90;;;;;;5105386;28;20047;-78
2022/06/07 01:27:15;;;;;;;23.55;13.95;;;11.80;99.90;;;;;;5098650;28;20139;-78
2022/06/07 01:29:42;;;;;;;20.67;11.25;;;11.80;99.90;;;;;;5085317;28;20036;-78
2022/06/07 01:32:09;;;;;;;23.73;11.88;;;11.90;99.90;;;;;;5090265;28;20044;-78
2022/06/07 01:34:37;;;;;;;20.83;11.18;;;12.00;99.90;;;;;;5106829;28;20050;-78
2022/06/07 01:37:04;;;;;;;22.75;12.45;;;12.00;99.90;;;;;;5099760;28;20127;-78
2022/06/07 01:42:14;;;;;;;25.02;12.05;;;12.20;99.90;;;;;;5089421;28;20055;-78
2022/06/07 01:44:41;;;;;;;24.20;11.40;;;12.00;99.90;;;;;;5103451;28;20064;-78
2022/06/07 01:47:10;;;;;;;21.35;12.25;;;12.10;99.90;;;;;;5095971;28;20040;-78
2022/06/07 01:49:38;;;;;;;30.95;11.02;;;12.00;99.90;;;;;;5083266;28;20143;-78
2022/06/07 01:52:05;;;;;;;18.52;9.32;;;12.10;99.90;;;;;;5086440;28;20047;-78
2022/06/07 01:54:31;;;;;;;17.55;9.63;;;12.10;99.90;;;;;;5103437;28;20040;-78
2022/06/07 01:56:56;;;;;;;16.98;10.65;;;12.20;99.90;;;;;;5102972;28;20097;-79
2022/06/07 01:59:22;;;;;;;18.48;9.80;;;12.10;99.90;;;;;;5104066;28;20079;-77
2022/06/07 02:01:49;;;;;;;22.05;11.40;;;12.20;99.90;;;;;;5091034;28;20415;-79
2022/06/07 02:04:15;;;;;;;18.23;10.63;;;12.30;99.90;;;;;;5083446;28;20068;-78
2022/06/07 02:06:40;;;;;;;17.38;10.15;;;12.20;99.90;;;;;;5083637;28;20079;-78
2022/06/07 02:09:07;;;;;;;22.77;10.90;;;12.20;99.90;;;;;;5082874;28;20045;-79
2022/06/07 02:11:34;;;;;;;17.23;10.15;;;12.10;99.90;;;;;;5093460;28;20032;-78
2022/06/07 02:13:59;;;;;;;18.20;10.68;;;12.20;99.90;;;;;;5103432;28;20036;-78
2022/06/07 02:16:25;;;;;;;20.30;11.48;;;12.20;99.90;;;;;;5103020;28;20070;-78
2022/06/07 02:18:52;;;;;;;13.52;7.53;;;12.20;99.90;;;;;;5103927;28;20415;-78
2022/06/07 02:21:19;;;;;;;18.60;10.27;;;12.20;99.90;;;;;;5102878;28;20099;-78
2022/06/07 02:23:45;;;;;;;16.98;8.90;;;12.20;99.90;;;;;;5089604;28;20051;-78
2022/06/07 02:26:22;;;;;;;18.73;8.75;;;12.20;99.90;;;;;;5082801;28;20040;-78
2022/06/07 02:28:52;;;;;;;25.88;10.32;;;12.30;99.90;;;;;;5082765;28;20075;-78
2022/06/07 02:31:18;;;;;;;15.98;10.13;;;12.20;99.90;;;;;;5083299;28;20504;-78
2022/06/07 02:33:45;;;;;;;15.82;9.02;;;12.20;99.90;;;;;;5082510;28;20044;-79
2022/06/07 02:36:12;;;;;;;16.50;9.82;;;12.20;99.90;;;;;;5083232;28;20041;-79
2022/06/07 02:38:39;;;;;;;16.73;9.00;;;12.30;99.90;;;;;;5102947;28;20036;-79
2022/06/07 02:41:09;;;;;;;18.73;9.80;;;12.20;99.90;;;;;;5098982;28;20029;-78
2022/06/07 02:43:35;;;;;;;14.65;8.70;;;12.30;99.90;;;;;;5081782;28;20048;-79
2022/06/07 02:46:00;;;;;;;15.25;8.80;;;12.30;99.90;;;;;;5082160;28;20052;-79
2022/06/07 02:48:26;;;;;;;16.52;7.88;;;12.30;99.90;;;;;;5081445;28;20048;-78
2022/06/07 02:50:55;;;;;;;18.13;9.23;;;12.40;99.90;;;;;;5084393;28;20044;-79
2022/06/07 02:53:20;;;;;;;16.35;8.77;;;12.30;99.90;;;;;;5101081;28;20045;-79
2022/06/07 02:55:46;;;;;;;12.75;8.38;;;12.40;99.90;;;;;;5102489;28;20454;-79
2022/06/07 02:58:12;;;;;;;16.85;8.57;;;12.30;99.90;;;;;;5101700;28;20040;-78
2022/06/07 03:00:38;;;;;;;13.13;8.82;;;12.30;99.90;;;;;;5100847;28;20063;-79
2022/06/07 03:03:03;;;;;;;16.27;8.73;;;12.40;99.90;;;;;;5105794;28;20032;-79
2022/06/07 03:05:29;;;;;;;20.70;10.38;;;12.30;99.90;;;;;;5105667;28;20040;-78
2022/06/07 03:07:55;;;;;;;12.93;9.13;;;12.40;99.90;;;;;;5106168;28;20043;-78
2022/06/07 03:10:21;;;;;;;16.77;9.80;;;12.40;99.90;;;;;;5105166;28;20115;-78
2022/06/07 03:12:47;;;;;;;15.73;9.45;;;12.40;99.90;;;;;;5086025;28;20037;-78
2022/06/07 03:15:13;;;;;;;15.90;9.52;;;12.40;99.90;;;;;;5083225;28;20048;-78
2022/06/07 03:17:39;;;;;;;14.38;9.20;;;12.40;99.90;;;;;;5080777;28;20492;-78
2022/06/07 03:20:06;;;;;;;20.33;10.70;;;12.40;99.90;;;;;;5080308;28;20040;-78
2022/06/07 03:22:34;;;;;;;22.58;10.10;;;12.30;99.90;;;;;;5081237;28;20047;-78
2022/06/07 03:25:05;;;;;;;22.65;11.95;;;12.40;99.90;;;;;;5080770;28;20044;-78
2022/06/07 03:27:31;;;;;;;20.23;11.18;;;12.40;99.90;;;;;;5083656;28;20055;-78
2022/06/07 03:29:57;;;;;;;20.63;11.77;;;12.40;99.90;;;;;;5090930;28;20045;-78
2022/06/07 03:32:22;;;;;;;23.15;11.68;;;12.40;99.90;;;;;;5087049;28;20036;-78
2022/06/07 03:34:48;;;;;;;23.58;11.70;;;12.50;99.90;;;;;;5095430;28;20106;-78
2022/06/07 03:37:13;;;;;;;23.10;11.63;;;12.40;99.90;;;;;;5080090;28;20261;-78
2022/06/07 03:39:39;;;;;;;21.35;11.20;;;12.40;99.90;;;;;;5079716;28;20044;-78
2022/06/07 03:42:05;;;;;;;16.95;11.07;;;12.40;99.90;;;;;;5079820;28;20072;-78
2022/06/07 03:44:31;;;;;;;22.25;12.90;;;12.50;99.90;;;;;;5079903;28;20070;-78
2022/06/07 03:46:56;;;;;;;20.02;11.73;;;12.40;99.90;;;;;;5080364;28;20041;-78
2022/06/07 03:49:22;;;;;;;21.42;12.23;;;12.50;99.90;;;;;;5080091;28;20040;-78
2022/06/07 03:51:48;;;;;;;20.17;11.73;;;12.40;99.90;;;;;;5079692;28;20146;-78
2022/06/07 03:54:14;;;;;;;18.67;11.82;;;12.50;99.90;;;;;;5078983;28;20056;-78
2022/06/07 03:56:39;;;;;;;19.67;11.82;;;12.50;99.90;;;;;;5079564;28;20043;-78
2022/06/07 03:59:05;;;;;;;21.85;11.10;;;12.50;99.90;;;;;;5078876;28;20044;-77
2022/06/07 04:01:30;;;;;;;21.98;11.88;;;12.60;99.90;;;;;;5078771;28;20102;-78
2022/06/07 04:04:02;;;;;;;17.98;10.88;;;12.50;99.90;;;;;;5078553;28;20049;-80
2022/06/07 04:06:31;;;;;;;17.50;11.27;;;12.60;99.90;;;;;;5078796;28;20060;-77
2022/06/07 04:08:57;;;;;;;19.50;11.85;;;12.60;99.90;;;;;;5078715;28;20044;-77
2022/06/07 04:11:24;;;;;;;21.88;11.63;;;12.60;99.90;;;;;;5085614;28;20040;-77
2022/06/07 04:13:53;;;;;;;21.85;12.32;;;12.60;99.90;;;;;;5099037;28;20036;-77
2022/06/07 04:16:22;;;;;;;23.90;13.15;;;12.50;99.90;;;;;;5098573;28;20044;-78
2022/06/07 04:18:48;;;;;;;20.02;11.50;;;12.50;99.90;;;;;;5097652;28;20044;-78
2022/06/07 04:21:14;;;;;;;22.33;10.85;;;12.40;99.90;;;;;;5097658;28;20581;-78
2022/06/07 04:23:41;;;;;;;19.88;11.70;;;12.40;99.90;;;;;;5097951;28;20041;-78
2022/06/07 04:26:13;;;;;;;19.08;11.57;;;12.40;99.90;;;;;;5098340;28;20037;-79
2022/06/07 04:28:39;;;;;;;22.77;11.52;;;12.30;99.90;;;;;;5083250;28;20090;-78
2022/06/07 04:31:20;;;;;;;19.95;11.13;;;12.30;99.90;;;;;;5082374;28;20040;-79
2022/06/07 04:33:46;;;;;;;25.70;12.23;;;12.30;99.90;;;;;;5098088;28;20036;-78
2022/06/07 04:36:15;;;;;;;21.75;11.45;;;12.40;99.90;;;;;;5097439;28;20526;-78
2022/06/07 04:38:42;;;;;;;16.42;10.80;;;12.40;99.90;;;;;;5096459;28;20036;-78
2022/06/07 04:41:12;;;;;;;24.73;11.98;;;12.40;99.90;;;;;;5093529;28;20131;-79
2022/06/07 04:43:38;;;;;;;21.27;11.88;;;12.40;99.90;;;;;;5075992;28;20040;-79
2022/06/07 04:46:06;;;;;;;20.92;11.18;;;12.60;99.90;;;;;;5076979;28;20040;-79
2022/06/07 04:48:32;;;;;;;21.70;11.55;;;12.40;99.90;;;;;;5086002;28;20491;-79
2022/06/07 04:51:08;;;;;;;22.60;12.77;;;12.40;99.90;;;;;;5097436;28;20044;-79
2022/06/07 04:53:33;;;;;;;;;;;12.40;99.90;;;;;;5098747;28;20047;-78
2022/06/07 04:56:01;;;;;;;16.67;9.90;;;12.40;99.90;;;;;;5097643;28;19920;-79
2022/06/07 04:58:27;;;;;;;17.98;10.27;;;12.40;99.90;;;;;;5097633;28;20044;-79
2022/06/07 05:00:52;;;;;;;21.02;10.65;;;12.80;99.90;;;;;;5097747;28;20078;-79
2022/06/07 05:03:19;;;;;;;20.88;9.95;;;12.50;99.90;;;;;;5097181;28;20066;-78
2022/06/07 05:05:45;;;;;;;20.83;11.68;;;12.50;99.90;;;;;;5097432;28;20109;-79
2022/06/07 05:08:11;;;;;;;20.67;10.70;;;12.50;99.90;;;;;;5096486;28;20095;-79
2022/06/07 05:10:39;;;;;;;16.48;10.45;;;12.50;99.90;;;;;;5092913;28;20044;-79
2022/06/07 05:13:04;;;;;;;16.48;10.40;;;12.50;99.90;;;;;;5073741;28;20111;-79
2022/06/07 05:15:30;;;;;;;21.85;11.27;;;12.50;99.90;;;;;;5073105;28;20167;-79
2022/06/07 05:17:56;;;;;;;19.60;10.55;;;12.40;99.90;;;;;;5073253;28;20036;-79
2022/06/07 05:20:21;;;;;;;17.20;11.50;;;12.30;99.90;;;;;;5071486;28;20040;-78
2022/06/07 05:22:47;;;;;;;21.52;11.45;;;12.30;99.90;;;;;;5077383;28;20032;-78
2022/06/07 05:25:12;;;;;;;18.73;13.00;;;12.10;99.90;;;;;;5090829;28;20184;-78
2022/06/07 05:27:43;;;;;;;22.85;13.10;;;12.10;99.90;;;;;;5085810;28;20036;-78
2022/06/07 05:30:12;;;;;;;23.52;13.50;;;12.10;99.90;;;;;;5077421;28;20059;-79
2022/06/07 05:32:37;;;;;;;21.98;13.43;;;12.00;99.90;;;;;;5093949;28;20134;-80
2022/06/07 05:35:05;;;;;;;27.23;13.23;;;11.90;99.90;;;;;;5094661;28;20072;-81
2022/06/07 05:37:32;;;;;;;19.48;11.50;;;11.80;99.90;;;;;;5096123;28;20109;-80
2022/06/07 05:39:58;;;;;;;23.35;11.65;;;12.40;99.90;;;;;;5096691;28;20048;-81
2022/06/07 05:42:23;;;;;;;17.75;10.85;;;11.80;99.90;;;;;;5096563;28;20054;-81
2022/06/07 05:44:49;;;;;;;16.83;9.07;;;11.80;99.90;;;;;;5097622;28;20047;-82
2022/06/07 05:47:15;;;;;;;13.48;7.80;;;11.70;99.90;;;;;;5096667;28;20040;-78
2022/06/07 05:49:41;;;;;;;17.65;9.23;;;11.70;99.90;;;;;;5096399;28;20051;-78
2022/06/07 05:52:07;;;;;;;14.35;7.35;;;11.70;99.90;;;;;;5097375;28;20403;-79
2022/06/07 05:54:35;;;;;;;16.60;8.70;;;11.80;99.90;;;;;;5098102;28;20047;-79
2022/06/07 05:57:01;;;;;;;14.05;6.18;;;11.80;99.90;;;;;;5096300;28;20123;-79
2022/06/07 05:59:27;;;;;;;15.00;7.50;;;12.20;99.90;;;;;;5095551;28;20032;-78
2022/06/07 06:01:53;;;;;;;15.20;6.18;;;11.70;99.90;;;;;;5095184;28;20393;-78
2022/06/07 06:04:19;;;;;;;10.50;5.18;;;11.70;99.90;;;;;;5094749;28;20048;-79
2022/06/07 06:06:44;;;;;;;10.65;5.47;;;11.70;99.90;;;;;;5094688;28;20044;-79
2022/06/07 06:11:54;;;;;;;11.23;4.70;;;11.60;99.90;;;;;;5095245;28;20079;-78
2022/06/07 06:14:21;;;;;;;8.63;4.25;;;11.60;99.90;;;;;;5084205;28;20033;-79
2022/06/07 06:16:46;;;;;;;7.68;4.38;;;12.20;99.90;;;;;;5077921;28;20084;-79
2022/06/07 06:19:12;;;;;;;10.85;5.45;;;11.50;99.90;;;;;;5083132;28;20036;-78
2022/06/07 06:21:42;;;;;;;12.23;4.22;;;11.60;99.90;;;;;;5098417;28;20510;-79
2022/06/07 06:24:09;;;;;;;10.43;4.15;;;11.60;99.90;;;;;;5097469;28;20431;-79
2022/06/07 06:26:37;;;;;;;10.13;4.93;;;11.60;99.90;;;;;;5084641;28;20045;-78
2022/06/07 06:29:03;;;;;;;7.10;4.00;;;11.60;99.90;;;;;;5077208;28;20083;-78
2022/06/07 06:31:29;;;;;;;9.20;4.18;;;11.60;99.90;;;;;;5077459;28;20053;-79
2022/06/07 06:33:55;;;;;;;9.52;3.72;;;11.50;99.90;;;;;;5077732;28;20051;-78
2022/06/07 06:36:24;;;;;;;6.07;3.50;;;11.60;99.90;;;;;;5093644;28;20044;-78
2022/06/07 06:38:50;;;;;;;10.13;4.30;;;11.60;99.90;;;;;;5103321;28;20036;-78
2022/06/07 06:41:21;;;;;;;13.20;4.40;;;11.60;99.90;;;;;;5102744;28;20097;-79
2022/06/07 06:43:47;;;;;;;7.40;3.85;;;11.60;99.90;;;;;;5101729;28;20044;-79
2022/06/07 06:46:19;;;;;;;7.38;4.13;;;11.70;99.90;;;;;;5099734;28;20518;-79
2022/06/07 06:48:45;;;;;;;13.05;4.50;;;11.60;99.90;;;;;;5099111;28;20089;-78
2022/06/07 06:51:13;;;;;;;7.07;4.00;;;11.60;99.90;;;;;;5099459;28;20544;-79
2022/06/07 06:53:41;;;;;;;16.48;5.18;;;11.70;99.90;;;;;;5098837;28;20047;-79
2022/06/07 06:56:08;;;;;;;17.15;4.25;;;11.70;99.90;;;;;;5097890;28;20407;-78
2022/06/07 06:58:34;;;;;;;11.88;4.40;;;11.60;99.90;;;;;;5098106;28;20051;-78
2022/06/07 07:01:07;;;;;;;13.27;5.45;;;11.70;99.90;;;;;;5097364;28;20404;-79
2022/06/07 07:03:33;;;;;;;10.23;5.32;;;11.50;99.90;;;;;;5096853;28;20040;-78
2022/06/07 07:06:04;;;;;;;14.13;5.97;;;11.50;99.90;;;;;;5096974;28;20040;-78
2022/06/07 07:08:30;;;;;;;13.57;5.63;;;11.40;99.90;;;;;;5099484;28;20099;-79
2022/06/07 07:11:11;;;;;;;13.13;5.50;;;11.40;99.90;;;;;;5099407;28;20046;-80
2022/06/07 07:13:38;;;;;;;17.02;5.55;;;11.30;99.90;;;;;;5100688;28;20548;-80
2022/06/07 07:16:08;;;;;;;13.95;5.82;;;11.30;99.90;;;;;;5098323;28;20048;-78
2022/06/07 07:18:33;;;;;;;15.23;5.22;;;11.30;99.90;;;;;;5100377;28;20076;-78
2022/06/07 07:21:06;;;;;;;9.20;4.35;;;11.30;99.90;;;;;;5101368;28;20122;-78
2022/06/07 07:23:32;;;;;;;10.27;4.63;;;11.30;99.90;;;;;;5102247;28;20059;-78
2022/06/07 07:26:07;;;;;;;14.02;4.82;;;11.50;99.90;;;;;;5102994;28;20059;-78
2022/06/07 07:28:33;;;;;;;12.60;4.43;;;11.30;99.90;;;;;;5102948;28;20036;-78
2022/06/07 07:31:01;;;;;;;15.63;5.13;;;11.40;99.90;;;;;;5103285;28;20051;-78
2022/06/07 07:33:27;;;;;;;7.70;3.60;;;11.50;99.90;;;;;;5101917;28;20395;-78
2022/06/07 07:35:53;;;;;;;11.73;4.18;;;11.60;99.90;;;;;;5102578;28;20044;-78
2022/06/07 07:38:19;;;;;;;10.75;4.18;;;11.60;99.90;;;;;;5102158;28;20047;-78
2022/06/07 07:40:45;;;;;;;10.82;4.00;;;11.70;99.90;;;;;;5101665;28;20066;-78
2022/06/07 07:43:10;;;;;;;12.52;3.85;;;11.70;99.90;;;;;;5101057;28;20043;-78
2022/06/07 07:45:36;;;;;;;9.98;4.57;;;11.70;99.90;;;;;;5100432;28;20035;-78
2022/06/07 07:48:03;;;;;;;12.07;4.30;;;11.60;99.90;;;;;;5099828;28;20500;-78
2022/06/07 07:50:28;;;;;;;13.43;4.05;;;11.70;99.90;;;;;;5100415;28;20044;-77
2022/06/07 07:52:57;;;;;;;9.43;3.13;;;11.70;99.90;;;;;;5100109;28;20051;-77
2022/06/07 07:55:23;;;;;;;8.32;2.30;;;11.70;99.90;;;;;;5100578;28;20048;-77
2022/06/07 07:57:48;;;;;;;9.18;1.80;;;11.80;99.90;;;;;;5100565;28;20044;-77
2022/06/07 08:00:14;;;;;;;9.35;2.97;;;11.70;99.90;;;;;;5098050;28;20044;-77
2022/06/07 08:02:40;;;;;;;7.00;2.38;;;11.80;99.90;;;;;;5097284;28;20056;-78
2022/06/07 08:05:06;;;;;;;5.75;1.98;;;11.90;99.90;;;;;;5097070;28;20399;-77
2022/06/07 08:07:32;;;;;;;6.82;2.70;;;12.00;99.90;;;;;;5097673;28;20040;-77
2022/06/07 08:10:01;;;;;;;12.68;3.58;;;12.00;99.90;;;;;;5080770;28;20044;-78
2022/06/07 08:12:27;;;;;;;10.57;3.70;;;12.40;99.90;;;;;;5101666;28;20036;-78
2022/06/07 08:14:53;;;;;;;6.00;2.20;;;12.30;99.90;;;;;;5101235;28;20039;-78
2022/06/07 08:17:20;;;;;;;5.70;2.30;;;12.40;99.90;;;;;;5101887;28;20133;-78
2022/06/07 08:19:45;;;;;;;7.18;2.17;;;12.40;99.90;;;;;;5101163;28;20036;-78
2022/06/07 08:22:11;;;;;;;5.05;1.92;;;12.70;99.90;;;;;;5100589;28;20048;-78
2022/06/07 08:24:38;;;;;;;9.20;2.95;;;12.50;99.90;;;;;;5101555;28;20036;-78
2022/06/07 08:27:03;;;;;;;7.45;3.22;;;12.60;99.90;;;;;;5101147;28;20541;-79
2022/06/07 08:29:29;;;;;;;7.85;2.58;;;12.60;99.90;;;;;;5099382;28;20047;-79
2022/06/07 08:31:55;;;;;;;9.88;2.72;;;12.70;99.90;;;;;;5099278;28;20036;-79
2022/06/07 08:39:49;;;;;;;8.88;2.15;;;13.10;99.90;;;;;;5100001;28;20440;-78
2022/06/07 08:42:30;;;;;;;4.38;1.50;;;13.20;99.90;;;;;;5099635;28;20036;-79
2022/06/07 08:45:20;;;;;;;4.07;1.52;;;13.30;99.90;;;;;;5099160;28;20047;-79
2022/06/07 08:47:50;;;;;;;5.72;2.10;;;13.50;99.90;;;;;;5097573;28;20075;-78
2022/06/07 08:50:22;;;;;;;5.80;1.92;;;13.60;99.90;;;;;;5098445;28;20055;-79
2022/06/07 08:52:51;;;;;;;6.50;2.30;;;13.70;99.90;;;;;;5097539;28;20056;-79
2022/06/07 08:55:25;;;;;;;5.97;2.20;;;13.80;99.90;;;;;;5098388;28;20151;-79
2022/06/07 08:57:57;;;;;;;8.07;2.13;;;13.90;99.90;;;;;;5101757;28;20036;-78
2022/06/07 09:00:31;;;;;;;8.05;2.60;;;14.40;99.90;;;;;;5100101;28;20047;-78
2022/06/07 09:03:15;;;;;;;8.35;2.35;;;14.40;99.90;;;;;;5099812;28;20044;-79
2022/06/07 09:05:41;;;;;;;6.18;2.33;;;14.60;99.90;;;;;;5100395;28;20214;-79
2022/06/07 09:08:12;;;;;;;7.15;2.33;;;14.60;99.90;;;;;;5099502;28;20097;-78
2022/06/07 09:13:24;;;;;;;6.97;2.25;;;14.60;99.90;;;;;;5100648;28;20051;-78
2022/06/07 09:15:55;;;;;;;4.68;1.90;;;14.60;99.90;;;;;;5100879;28;20036;-78
2022/06/07 09:18:25;;;;;;;9.55;1.73;;;14.70;99.90;;;;;;5100417;28;20091;-78
2022/06/07 09:20:54;;;;;;;5.10;1.85;;;14.70;99.90;;;;;;5100133;28;20044;-78
2022/06/07 09:23:24;;;;;;;10.75;2.15;;;14.70;99.90;;;;;;5099288;28;20075;-78
2022/06/07 09:25:53;;;;;;;4.47;1.30;;;14.70;99.90;;;;;;5099072;28;20036;-79
2022/06/07 09:28:26;;;;;;;9.65;2.13;;;14.70;99.90;;;;;;5099169;28;20078;-78
2022/06/07 09:31:17;;;;;;;3.03;1.50;;;14.70;99.90;;;;;;5098624;28;20047;-78
2022/06/07 09:33:56;;;;;;;8.40;1.45;;;14.60;99.90;;;;;;5098228;28;20165;-79
2022/06/07 09:36:32;;;;;;;5.85;2.15;;;14.50;99.90;;;;;;5098404;28;20044;-77
2022/06/07 09:39:04;;;;;;;4.93;1.40;;;14.40;99.90;;;;;;5098893;28;20036;-78
2022/06/07 09:41:36;;;;;;;5.40;1.50;;;14.40;99.90;;;;;;5097792;28;20052;-78
2022/06/07 09:44:21;;;;;;;7.93;1.33;;;14.40;99.90;;;;;;5098303;28;20048;-78
2022/06/07 09:46:57;;;;;;;6.57;1.35;;;14.60;99.90;;;;;;5098095;28;20149;-79
2022/06/07 09:49:44;;;;;;;13.20;2.65;;;14.80;99.90;;;;;;5098189;28;20551;-78
2022/06/07 09:52:24;;;;;;;5.78;1.52;;;14.90;99.90;;;;;;5097153;28;20135;-78
2022/06/07 09:55:24;;;;;;;5.90;1.38;;;15.00;99.90;;;;;;5097720;28;20058;-78
2022/06/07 09:58:10;;;;;;;7.80;1.65;;;15.20;99.90;;;;;;5052167;28;20126;-78
2022/06/07 10:00:49;;;;;;;5.53;1.40;;;15.30;99.90;;;;;;5099412;28;20086;-78
2022/06/07 10:03:38;;;;;;;7.63;2.55;;;15.60;99.90;;;;;;5100785;28;20075;-78
2022/06/07 10:06:27;;;;;;;9.05;1.77;;;15.80;99.90;;;;;;5098795;28;20511;-78
2022/06/07 10:09:14;;;;;;;8.27;1.83;;;16.10;99.90;;;;;;5095265;28;20442;-78
2022/06/07 10:11:48;;;;;;;8.25;1.30;;;16.40;99.90;;;;;;5098612;28;20044;-78
2022/06/07 10:14:23;;;;;;;6.20;1.40;;;16.60;99.90;;;;;;5100716;28;20040;-78
2022/06/07 10:16:58;;;;;;;6.45;1.00;;;16.70;99.90;;;;;;5099779;28;20048;-78
2022/06/07 10:19:54;;;;;;;6.45;1.30;;;16.60;99.90;;;;;;5097858;28;20428;-78
2022/06/07 10:22:51;;;;;;;6.73;1.23;;;16.50;99.90;;;;;;5097864;28;20048;-78
2022/06/07 10:25:35;;;;;;;6.68;1.55;;;16.50;99.90;;;;;;5098639;28;20123;-78
2022/06/07 10:28:17;;;;;;;11.77;2.55;;;16.50;99.90;;;;;;5098572;28;20115;-77
2022/06/07 10:31:06;;;;;;;6.70;1.52;;;16.40;99.90;;;;;;5098524;28;20407;-78
2022/06/07 10:34:04;;;;;;;8.52;1.70;;;16.60;99.90;;;;;;5098427;28;20446;-78
2022/06/07 10:36:51;;;;;;;9.52;1.88;;;16.70;99.90;;;;;;5098782;28;20052;-78
2022/06/07 10:39:48;;;;;;;10.68;2.13;;;16.60;99.90;;;;;;5097989;28;20048;-77
2022/06/07 10:42:45;;;;;;;10.63;2.03;;;16.70;99.90;;;;;;5099479;28;20048;-78
2022/06/07 10:45:19;;;;;;;9.40;1.73;;;16.80;99.90;;;;;;5098958;28;20052;-78
2022/06/07 10:47:49;;;;;;;6.65;1.35;;;16.90;99.90;;;;;;5099660;28;20044;-78
2022/06/07 10:50:37;;;;;;;7.40;2.75;;;17.10;99.90;;;;;;5099203;28;20088;-78
2022/06/07 10:53:17;;;;;;;10.40;1.92;;;17.20;99.90;;;;;;5097639;28;20048;-78
2022/06/07 10:56:04;;;;;;;8.73;1.83;;;16.90;99.90;;;;;;5095705;28;20071;-78
2022/06/07 10:58:48;;;;;;;9.00;1.85;;;16.90;99.90;;;;;;5095873;28;20044;-78
2022/06/07 11:01:35;;;;;;;6.90;1.30;;;16.80;99.90;;;;;;5092853;28;20079;-78
2022/06/07 11:10:27;;;;;;;8.13;1.40;;;17.50;99.90;;;;;;5095034;28;20055;-78
2022/06/07 11:13:21;;;;;;;6.88;1.35;;;18.70;99.90;;;;;;5095495;28;20074;-78
2022/06/07 11:16:06;;;;;;;4.57;1.00;;;19.60;99.90;;;;;;5095266;28;20517;-78
2022/06/07 11:18:32;;;;;;;4.70;1.35;;;20.50;99.90;;;;;;5094348;28;20044;-78
2022/06/07 11:21:01;;;;;;;3.60;0.93;;;20.70;97.60;;;;;;5096101;28;20040;-81
2022/06/07 11:23:43;;;;;;;5.47;1.30;;;20.50;97.50;;;;;;5097406;28;20042;-78
2022/06/07 11:26:16;;;;;;;6.30;1.40;;;20.50;89.80;;;;;;5098891;28;20106;-78
2022/06/07 11:28:43;;;;;;;6.53;1.55;;;20.10;92.40;;;;;;5099223;28;20115;-78
2022/06/07 11:31:15;;;;;;;5.95;1.50;;;19.70;90.20;;;;;;5098829;28;20056;-78
2022/06/07 11:34:02;;;;;;;7.22;1.15;;;19.40;91.80;;;;;;5098757;28;20625;-78
2022/06/07 11:36:35;;;;;;;8.13;2.40;;;19.00;95.60;;;;;;5098900;28;20040;-78
2022/06/07 11:39:18;;;;;;;11.50;2.28;;;18.70;94.40;;;;;;5097992;28;20119;-78
2022/06/07 11:41:51;;;;;;;8.63;2.25;;;18.20;96.30;;;;;;5098165;28;20538;-79
2022/06/07 11:44:16;;;;;;;4.00;1.30;;;17.70;99.90;;;;;;5099955;28;20044;-78
2022/06/07 11:47:01;;;;;;;12.15;1.88;;;17.50;99.90;;;;;;5098323;28;20040;-78
2022/06/07 11:49:27;;;;;;;8.63;2.10;;;17.10;99.90;;;;;;5099074;28;20068;-78
2022/06/07 11:51:54;;;;;;;13.50;2.38;;;17.00;99.90;;;;;;5100386;28;20064;-78
2022/06/07 11:54:48;;;;;;;8.35;2.38;;;16.90;99.90;;;;;;5099595;28;20488;-78
2022/06/07 11:57:29;;;;;;;11.38;1.92;;;16.90;99.90;;;;;;5099073;28;20524;-78
2022/06/07 12:00:16;;;;;;;7.22;1.58;;;16.60;99.90;;;;;;5096756;28;20040;-78
2022/06/07 12:03:00;;;;;;;8.38;1.67;;;16.50;99.90;;;;;;5080108;28;20080;-78
2022/06/07 12:05:36;;;;;;;6.15;1.52;;;16.20;99.90;;;;;;5079076;28;20049;-78
2022/06/07 12:08:26;;;;;;;13.13;1.92;;;16.10;99.90;;;;;;5079789;28;20040;-78
2022/06/07 12:11:02;;;;;;;8.30;1.35;;;16.60;99.90;;;;;;5077493;28;20040;-78
2022/06/07 12:13:52;;;;;;;5.50;1.60;;;17.70;99.90;;;;;;5092557;28;20043;-78
2022/06/07 12:16:44;;;;;;;8.50;1.52;;;18.70;99.90;;;;;;5098417;28;20047;-78
2022/06/07 12:19:34;;;;;;;4.22;1.42;;;19.10;99.80;;;;;;5098583;28;20123;-78
2022/06/07 12:22:06;;;;;;;7.05;1.73;;;19.00;92.40;;;;;;5100054;28;20600;-78
2022/06/07 12:24:43;;;;;;;9.40;1.85;;;18.90;90.00;;;;;;5099512;28;20137;-78
2022/06/07 12:27:27;;;;;;;5.10;1.35;;;18.90;91.30;;;;;;5098460;28;20043;-78
2022/06/07 12:30:00;;;;;;;7.63;1.50;;;19.00;90.60;;;;;;5097942;28;20051;-78
2022/06/07 12:32:36;;;;;;;12.68;1.77;;;19.00;91.80;;;;;;5098972;28;20512;-79
2022/06/07 12:35:22;;;;;;;5.32;1.40;;;19.30;90.20;;;;;;5098173;28;20646;-79
2022/06/07 12:37:56;;;;;;;10.63;1.95;;;19.70;78.40;;;;;;5080469;28;20055;-79
2022/06/07 12:40:23;;;;;;;13.65;2.53;;;19.70;83.80;;;;;;5079030;28;20119;-79
2022/06/07 12:42:49;;;;;;;7.07;2.42;;;19.50;80.70;;;;;;5079896;28;20124;-78
2022/06/07 12:45:34;;;;;;;5.78;1.25;;;19.10;86.80;;;;;;5079564;28;20082;-78
2022/06/07 12:48:15;;;;;;;12.07;1.98;;;19.00;77.50;;;;;;5078361;28;20053;-79
2022/06/07 12:50:43;;;;;;;5.65;1.52;;;18.70;82.50;;;;;;5079283;28;20459;-79
2022/06/07 12:53:22;;;;;;;7.60;1.60;;;18.30;90.60;;;;;;5088930;28;20047;-79
2022/06/07 12:56:10;;;;;;;8.60;1.85;;;18.20;98.50;;;;;;5100724;28;20385;-79
2022/06/07 12:58:46;;;;;;;8.98;2.88;;;19.70;95.10;;;;;;5097996;28;20071;-79
2022/06/07 13:01:32;;;;;;;9.75;1.90;;;20.70;83.30;;;;;;5099647;28;20104;-79
2022/06/07 13:04:20;;;;;;;7.20;1.52;;;21.10;64.60;;;;;;5099460;28;20044;-79
2022/06/07 13:07:03;;;;;;;7.90;2.67;;;20.70;71.00;;;;;;5079398;28;20123;-79
2022/06/07 13:09:29;;;;;;;7.30;1.80;;;21.10;62.70;;;;;;5077313;28;20051;-79
2022/06/07 13:11:56;;;;;;;9.77;1.88;;;20.90;60.20;;;;;;5078086;28;20484;-80
2022/06/07 13:14:23;;;;;;;10.25;2.72;;;20.50;65.80;;;;;;5076887;28;20115;-79
2022/06/07 13:16:49;;;;;;;10.02;1.80;;;20.00;72.50;;;;;;5075689;28;20044;-80
2022/06/07 13:19:15;;;;;;;5.63;1.73;;;20.00;69.60;;;;;;5076548;28;20041;-79
2022/06/07 13:22:03;;;;;;;7.95;1.52;;;19.90;72.10;;;;;;5075989;28;20049;-78